map of LIMN home
LIMN - Airport
Location
City:  Cameri, Piedmont, Italy
Near (Alt.):Novara
Name:Natale e Silvio Palli
Old (Alt.):Cameri AFB
ICAO:LIMN

Details
Type:Airport (Aerodrome, Airfield)
Use:Military, International (customs port of entry)
Latitude:4531'47"N (45.529592)
Longitude:840'09"E (8.669225)
Datum:WGS 1984
Elevation:586 ft (179 m)
Variation:2.68E (WMM2015v2 magnetic declination)
0.15 annual change
Runways:1
Longest:9818 × 94 ft (2993 × 28.5 m), paved

Time
Time Zone:UTC+1 (DST+2)
Local Time:

Weather
METAR:LIMN 041355Z 14007KT 100V180 CAVOK 11/M01 Q1024 RMK FEW FEW200 VIS MIN 9999 BLU

Related Locations
Nearby:
Farthest:CHT: 12159 mi / 19569 km
Waitangi [Tuuta], CIT, NZ

Find:

   beyond  
but within

Other Information
Maps:
NOTAMs:
Links:
Sources:

  
  • flag of Italy
  • flag of Piedmont
  

Sectional Chart

Flight Planning
at skyvector.com

Satellite Image

Google Maps Satellite view

 

Copyright © 2004-2019 Karl L. Swartz. All rights reserved.
The Great Circle Mapper name and logo are trademarks of the Great Circle Mapper.
All other trademarks mentioned herein belong to their respective owners.
Please see credits for attibutions and further copyright information.

  Follow gcmap on Facebook Follow gcmap on Twitter GCmap on LinkedIn

hCard Microformat

Geo Microformat